createdAt,value
2022-11-24T00:01:10.619Z,1.10
2022-11-24T00:03:37.412Z,1.00
2022-11-24T00:06:11.863Z,1.13
2022-11-24T00:08:39.448Z,1.13
2022-11-24T00:11:07.314Z,1.23
2022-11-24T00:13:34.342Z,1.17
2022-11-24T00:16:24.510Z,1.20
2022-11-24T00:18:53.531Z,1.38
2022-11-24T00:21:20.418Z,1.45
2022-11-24T00:23:47.422Z,1.23
2022-11-24T00:26:18.028Z,0.95
2022-11-24T00:28:45.290Z,1.20
2022-11-24T00:31:25.381Z,1.10
2022-11-24T00:33:55.348Z,1.08
2022-11-24T00:36:23.809Z,1.30
2022-11-24T00:38:58.248Z,1.30
2022-11-24T00:41:25.637Z,1.23
2022-11-24T00:43:52.705Z,1.17
2022-11-24T00:46:19.812Z,1.30
2022-11-24T00:48:46.932Z,1.25
2022-11-24T00:51:14.679Z,1.00
2022-11-24T00:53:41.751Z,1.30
2022-11-24T00:56:08.762Z,1.30
2022-11-24T00:58:35.594Z,1.20
2022-11-24T01:01:12.987Z,1.17
2022-11-24T01:03:39.958Z,1.50
2022-11-24T01:06:12.018Z,1.30
2022-11-24T01:08:38.869Z,1.30
2022-11-24T01:11:14.198Z,1.20
2022-11-24T01:13:41.362Z,1.25
2022-11-24T01:16:17.343Z,0.90
2022-11-24T01:18:44.266Z,1.45
2022-11-24T01:21:11.091Z,1.17
2022-11-24T01:23:38.100Z,1.40
2022-11-24T01:26:09.273Z,1.42
2022-11-24T01:28:37.019Z,1.20
2022-11-24T01:31:06.427Z,1.10
2022-11-24T01:33:34.215Z,1.25
2022-11-24T01:36:01.283Z,1.27
2022-11-24T01:38:29.473Z,1.17
2022-11-24T01:41:11.919Z,1.13
2022-11-24T01:43:38.703Z,0.98
2022-11-24T01:46:20.066Z,1.27
2022-11-24T01:48:58.824Z,1.20
2022-11-24T01:51:26.774Z,1.38
2022-11-24T01:54:06.386Z,1.05
2022-11-24T01:56:33.262Z,1.38
2022-11-24T01:59:01.448Z,1.00
2022-11-24T02:01:29.997Z,1.20
2022-11-24T02:03:56.792Z,1.08
2022-11-24T02:06:26.406Z,1.23
2022-11-24T02:09:07.106Z,0.80
2022-11-24T02:11:35.489Z,1.23
2022-11-24T02:14:02.619Z,0.85
2022-11-24T02:16:30.353Z,1.08
2022-11-24T02:18:57.081Z,0.90
2022-11-24T02:21:23.819Z,1.08
2022-11-24T02:24:02.459Z,1.30
2022-11-24T02:26:45.379Z,1.10
2022-11-24T02:29:13.141Z,1.13
2022-11-24T02:31:50.059Z,1.20
2022-11-24T02:34:16.934Z,1.10
2022-11-24T02:36:43.695Z,1.20
2022-11-24T02:39:14.154Z,1.20
2022-11-24T02:41:47.717Z,1.17
2022-11-24T02:44:14.525Z,1.15
2022-11-24T02:46:41.426Z,1.30
2022-11-24T02:49:08.172Z,1.10
2022-11-24T02:51:35.068Z,1.08
2022-11-24T02:54:03.436Z,1.00
2022-11-24T02:56:30.190Z,0.98
2022-11-24T02:58:56.940Z,1.10
2022-11-24T03:01:23.759Z,0.93
2022-11-24T03:03:50.542Z,0.90
2022-11-24T03:06:17.288Z,0.95
2022-11-24T03:08:44.066Z,1.08
2022-11-24T03:11:10.817Z,0.70
2022-11-24T03:13:37.556Z,0.80
2022-11-24T03:16:08.668Z,1.10
2022-11-24T03:18:35.444Z,1.10
2022-11-24T03:21:03.089Z,1.33
2022-11-24T03:23:30.232Z,1.00
2022-11-24T03:26:07.412Z,1.23
2022-11-24T03:28:35.382Z,1.10
2022-11-24T03:31:03.358Z,0.95
2022-11-24T03:33:30.466Z,1.25
2022-11-24T03:35:57.215Z,1.10
2022-11-24T03:38:23.960Z,1.00
2022-11-24T03:40:50.873Z,0.90
2022-11-24T03:43:17.638Z,1.30
2022-11-24T03:45:48.096Z,0.90
2022-11-24T03:48:15.623Z,1.10
2022-11-24T03:50:42.413Z,1.10
2022-11-24T03:53:09.257Z,1.10
2022-11-24T03:55:36.826Z,0.93
2022-11-24T03:58:03.560Z,1.10
2022-11-24T04:00:30.482Z,1.02
2022-11-24T04:02:57.300Z,1.13
2022-11-24T04:05:25.272Z,1.30
2022-11-24T04:07:54.997Z,1.00
2022-11-24T04:10:21.775Z,1.00
2022-11-24T04:12:48.540Z,0.98
2022-11-24T04:15:17.042Z,0.98
2022-11-24T04:17:44.856Z,1.10
2022-11-24T04:20:12.072Z,1.10
2022-11-24T04:22:38.961Z,1.02
2022-11-24T04:25:07.565Z,1.13
2022-11-24T04:27:35.108Z,1.20
2022-11-24T04:30:02.326Z,0.95
2022-11-24T04:32:29.054Z,1.00
2022-11-24T04:34:55.802Z,0.88
2022-11-24T04:37:22.594Z,0.90
2022-11-24T04:39:49.404Z,1.00
2022-11-24T04:42:16.159Z,1.05
2022-11-24T04:44:42.940Z,0.88
2022-11-24T04:47:16.415Z,1.10
2022-11-24T04:49:43.157Z,1.10
2022-11-24T04:52:09.948Z,1.10
2022-11-24T04:54:37.313Z,0.90
2022-11-24T04:57:04.498Z,1.13
2022-11-24T04:59:31.281Z,1.17
2022-11-24T05:01:58.106Z,1.02
2022-11-24T05:04:24.942Z,1.00
2022-11-24T05:06:51.757Z,0.93
2022-11-24T05:09:18.521Z,1.20
2022-11-24T05:11:45.262Z,0.90
2022-11-24T05:14:12.023Z,0.85
2022-11-24T05:16:40.835Z,0.90
2022-11-24T05:19:07.924Z,1.00
2022-11-24T05:21:35.265Z,0.93
2022-11-24T05:24:01.985Z,1.15
2022-11-24T05:26:28.758Z,0.95
2022-11-24T05:28:55.469Z,1.10
2022-11-24T05:31:22.262Z,1.10
2022-11-24T05:33:49.024Z,0.85
2022-11-24T05:36:34.387Z,0.68
2022-11-24T05:39:01.261Z,1.02
2022-11-24T05:41:28.004Z,1.00
2022-11-24T05:43:54.740Z,1.10
2022-11-24T05:46:21.468Z,1.00
2022-11-24T05:48:48.293Z,0.95
2022-11-24T05:51:14.996Z,0.98
2022-11-24T05:53:42.735Z,0.93
2022-11-24T05:56:09.449Z,1.10
2022-11-24T05:58:36.278Z,1.10
2022-11-24T06:01:06.623Z,1.20
2022-11-24T06:03:33.417Z,0.90
2022-11-24T06:06:00.180Z,1.13
2022-11-24T06:08:30.807Z,0.80
2022-11-24T06:11:19.678Z,0.80
2022-11-24T06:13:47.633Z,1.00
2022-11-24T06:16:14.897Z,1.00
2022-11-24T06:18:42.287Z,1.02
2022-11-24T06:21:11.307Z,0.77
2022-11-24T06:23:39.571Z,0.75
2022-11-24T06:26:06.473Z,1.10
2022-11-24T06:28:33.213Z,0.98
2022-11-24T06:31:03.738Z,1.27
2022-11-24T06:33:34.707Z,1.10
2022-11-24T06:36:03.473Z,0.85
2022-11-24T06:38:30.502Z,0.90
2022-11-24T06:41:09.082Z,0.80
2022-11-24T06:43:35.929Z,0.90
2022-11-24T06:46:03.037Z,0.93
2022-11-24T06:48:29.974Z,0.80
2022-11-24T06:51:05.146Z,0.88
2022-11-24T06:53:32.682Z,0.88
2022-11-24T06:55:59.874Z,0.90
2022-11-24T06:58:26.681Z,0.90
2022-11-24T07:00:53.642Z,1.00
2022-11-24T07:03:20.509Z,1.00
2022-11-24T07:05:47.391Z,0.90
2022-11-24T07:08:18.001Z,0.90
2022-11-24T07:10:47.023Z,1.02
2022-11-24T07:13:13.737Z,0.75
2022-11-24T07:15:40.443Z,1.15
2022-11-24T07:18:07.150Z,0.88
2022-11-24T07:20:33.890Z,1.02
2022-11-24T07:23:00.620Z,0.70
2022-11-24T07:25:27.751Z,1.00
2022-11-24T07:28:00.834Z,1.00
2022-11-24T07:30:28.536Z,0.88
2022-11-24T07:33:02.185Z,1.20
2022-11-24T07:35:29.395Z,1.20
2022-11-24T07:37:59.473Z,0.98
2022-11-24T07:40:26.966Z,1.10
2022-11-24T07:42:54.220Z,1.00
2022-11-24T07:45:21.004Z,0.73
2022-11-24T07:47:48.586Z,1.10
2022-11-24T07:50:16.436Z,1.00
2022-11-24T07:52:43.211Z,1.20
2022-11-24T08:33:11.070Z,1.73
2022-11-24T08:35:38.380Z,1.95
2022-11-24T08:38:05.838Z,2.28
2022-11-24T08:40:33.326Z,2.00
2022-11-24T08:43:00.499Z,2.35
2022-11-24T08:45:30.558Z,2.10
2022-11-24T08:47:58.134Z,1.70
2022-11-24T08:50:25.419Z,1.92
2022-11-24T08:52:53.392Z,1.88
2022-11-24T08:55:20.364Z,1.88
2022-11-24T08:57:47.155Z,1.42
2022-11-24T09:00:22.131Z,2.13
2022-11-24T09:02:58.233Z,1.92
2022-11-24T09:05:50.766Z,1.50
2022-11-24T09:08:12.255Z,1.90
2022-11-24T09:10:39.468Z,1.92
2022-11-24T09:13:07.494Z,1.90
2022-11-24T09:15:37.065Z,1.92
2022-11-24T09:18:03.779Z,1.60
2022-11-24T09:20:30.495Z,1.45
2022-11-24T09:22:57.206Z,1.65
2022-11-24T09:25:24.031Z,1.42
2022-11-24T09:27:51.197Z,2.42
2022-11-24T09:30:18.403Z,1.50
2022-11-24T09:32:45.461Z,1.30
2022-11-24T09:35:12.613Z,1.60
2022-11-24T09:37:39.381Z,1.38
2022-11-24T09:40:10.052Z,1.65
2022-11-24T09:42:53.388Z,1.13
2022-11-24T09:45:57.198Z,1.42
2022-11-24T09:48:26.845Z,1.45
2022-11-24T09:50:53.584Z,1.40
2022-11-24T09:53:54.943Z,1.80
2022-11-24T09:56:26.430Z,1.73
2022-11-24T09:59:00.551Z,1.48
2022-11-24T10:01:31.742Z,1.52
2022-11-24T10:04:04.321Z,1.30
2022-11-24T10:06:54.035Z,1.33
2022-11-24T10:09:23.924Z,1.35
2022-11-24T10:12:13.452Z,1.50
2022-11-24T10:14:59.031Z,1.48
2022-11-24T10:18:00.019Z,1.67
2022-11-24T10:21:03.822Z,1.42
2022-11-24T10:23:51.974Z,1.38
2022-11-24T10:26:30.644Z,1.63
2022-11-24T10:28:58.077Z,1.48
2022-11-24T10:31:30.802Z,1.70
2022-11-24T10:34:00.750Z,1.58
2022-11-24T10:36:38.657Z,1.73
2022-11-24T10:39:10.959Z,1.40
2022-11-24T10:41:38.571Z,1.70
2022-11-24T10:44:10.007Z,1.20
2022-11-24T10:46:39.620Z,1.35
2022-11-24T10:49:08.300Z,1.50
2022-11-24T10:51:53.383Z,1.55
2022-11-24T10:54:22.126Z,1.60
2022-11-24T10:56:50.993Z,1.48
2022-11-24T10:59:38.982Z,1.25
2022-11-24T11:02:29.193Z,1.60
2022-11-24T11:04:56.111Z,1.63
2022-11-24T11:07:25.348Z,1.42
2022-11-24T11:10:12.290Z,1.50
2022-11-24T11:12:46.149Z,1.42
2022-11-24T11:15:21.781Z,1.60
2022-11-24T11:17:50.371Z,1.55
2022-11-24T11:20:19.038Z,1.50
2022-11-24T11:22:47.023Z,1.48
2022-11-24T11:25:13.760Z,1.60
2022-11-24T11:27:40.908Z,1.38
2022-11-24T11:36:10.285Z,1.40
2022-11-24T11:38:38.954Z,1.27
2022-11-24T11:41:07.420Z,1.13
2022-11-24T11:43:36.907Z,1.38
2022-11-24T11:46:15.541Z,1.38
2022-11-24T11:48:46.326Z,1.77
2022-11-24T11:55:01.096Z,1.70
2022-11-24T11:57:40.585Z,1.60
2022-11-24T12:00:22.079Z,1.35
2022-11-24T12:03:08.683Z,1.60
2022-11-24T12:05:50.711Z,1.48
2022-11-24T12:09:11.497Z,1.25
2022-11-24T12:11:35.382Z,1.77
2022-11-24T12:14:17.169Z,1.63
2022-11-24T12:16:45.500Z,1.42
2022-11-24T12:19:29.038Z,1.60
2022-11-24T12:22:04.952Z,1.90
2022-11-24T12:24:43.934Z,1.88
2022-11-24T12:27:28.760Z,1.23
2022-11-24T12:30:02.308Z,1.52
2022-11-24T12:32:41.823Z,1.55
2022-11-24T12:35:14.800Z,1.55
2022-11-24T12:37:47.847Z,1.65
2022-11-24T12:40:27.960Z,1.15
2022-11-24T12:43:18.913Z,1.42
2022-11-24T12:46:17.274Z,1.40
2022-11-24T12:48:53.664Z,1.58
2022-11-24T12:51:24.616Z,1.35
2022-11-24T12:53:51.459Z,1.30
2022-11-24T12:56:21.825Z,1.48
2022-11-24T12:59:22.678Z,1.35
2022-11-24T13:02:04.982Z,1.17
2022-11-24T13:04:45.711Z,1.80
2022-11-24T13:07:19.000Z,1.40
2022-11-24T13:10:46.590Z,1.30
2022-11-24T13:13:11.617Z,1.33
2022-11-24T13:16:20.612Z,1.15
2022-11-24T13:19:13.831Z,1.40
2022-11-24T13:21:40.620Z,1.05
2022-11-24T13:24:30.821Z,1.23
2022-11-24T13:27:16.025Z,1.30
2022-11-24T13:29:46.048Z,1.30
2022-11-24T13:32:13.027Z,1.33
2022-11-24T13:34:39.983Z,1.40
2022-11-24T13:37:31.917Z,1.45
2022-11-24T13:40:14.483Z,1.30
2022-11-24T13:42:57.180Z,1.23
2022-11-24T13:45:39.063Z,0.93
2022-11-24T13:48:21.925Z,1.30
2022-11-24T13:50:54.019Z,1.10
2022-11-24T13:53:48.302Z,1.10
2022-11-24T13:56:15.296Z,1.42
2022-11-24T13:59:11.831Z,1.58
2022-11-24T14:01:41.262Z,1.73
2022-11-24T14:04:31.103Z,1.63
2022-11-24T14:07:09.063Z,1.27
2022-11-24T14:09:50.756Z,1.90
2022-11-24T14:12:21.312Z,1.45
2022-11-24T14:14:51.732Z,1.35
2022-11-24T14:17:23.412Z,1.10
2022-11-24T14:19:55.113Z,1.30
2022-11-24T14:22:23.486Z,1.35
2022-11-24T14:24:57.656Z,1.77
2022-11-24T14:27:28.166Z,1.52
2022-11-24T14:29:56.438Z,1.70
2022-11-24T14:32:23.429Z,1.33
2022-11-24T14:34:52.082Z,1.35
2022-11-24T14:37:22.060Z,1.73
2022-11-24T14:39:49.092Z,1.13
2022-11-24T14:42:23.497Z,1.50
2022-11-24T14:44:54.208Z,1.38
2022-11-24T14:47:30.485Z,1.27
2022-11-24T14:50:06.873Z,1.38
2022-11-24T14:52:34.085Z,1.25
2022-11-24T14:55:21.730Z,1.40
2022-11-24T14:57:49.085Z,1.55
2022-11-24T15:00:16.958Z,1.50
2022-11-24T15:02:53.487Z,1.10
2022-11-24T15:05:21.731Z,1.48
2022-11-24T15:07:49.866Z,1.58
2022-11-24T15:10:26.658Z,1.40
2022-11-24T15:13:00.214Z,2.00
2022-11-24T15:15:34.898Z,1.90
2022-11-24T15:18:02.361Z,2.25
2022-11-24T15:20:45.516Z,1.88
2022-11-24T15:23:24.814Z,1.58
2022-11-24T15:25:58.013Z,1.70
2022-11-24T15:28:28.060Z,1.88
2022-11-24T15:30:55.939Z,1.60
2022-11-24T15:33:23.009Z,1.50
2022-11-24T15:35:49.842Z,1.70
2022-11-24T15:38:16.643Z,1.70
2022-11-24T15:40:45.666Z,2.45
2022-11-24T15:43:38.290Z,1.75
2022-11-24T15:46:05.446Z,1.80
2022-11-24T15:48:32.785Z,2.10
2022-11-24T15:51:01.183Z,1.58
2022-11-24T15:53:38.837Z,1.35
2022-11-24T15:56:30.805Z,1.80
2022-11-24T15:58:57.586Z,1.90
2022-11-24T16:01:24.971Z,1.55
2022-11-24T16:03:51.712Z,1.70
2022-11-24T16:06:24.303Z,1.55
2022-11-24T16:08:53.274Z,1.75
2022-11-24T16:11:20.252Z,1.95
2022-11-24T16:13:51.799Z,1.50
2022-11-24T16:16:19.082Z,1.48
2022-11-24T16:18:45.970Z,1.50
2022-11-24T16:21:12.784Z,1.52
2022-11-24T16:23:39.591Z,1.58
2022-11-24T16:26:06.722Z,1.77
2022-11-24T16:28:33.494Z,1.90
2022-11-24T16:31:00.519Z,2.05
2022-11-24T16:33:29.102Z,2.15
2022-11-24T16:35:55.827Z,1.77
2022-11-24T16:38:22.556Z,1.73
2022-11-24T16:40:52.840Z,1.90
2022-11-24T16:43:19.660Z,2.00
2022-11-24T16:45:46.513Z,1.50
2022-11-24T16:48:13.353Z,1.50
2022-11-24T16:50:40.045Z,2.08
2022-11-24T16:53:06.806Z,1.58
2022-11-24T16:55:33.541Z,1.73
2022-11-24T16:58:02.342Z,1.23
2022-11-24T17:00:29.187Z,1.65
2022-11-24T17:02:55.948Z,1.27
2022-11-24T17:05:22.767Z,1.45
2022-11-24T17:07:49.610Z,1.40
2022-11-24T17:10:16.404Z,1.63
2022-11-24T17:12:44.833Z,1.67
2022-11-24T17:20:45.580Z,2.05
2022-11-24T17:23:12.559Z,2.10
2022-11-24T17:25:40.626Z,2.10
2022-11-24T17:28:08.408Z,1.73
2022-11-24T17:30:36.940Z,1.95
2022-11-24T17:33:03.691Z,1.67
2022-11-24T17:35:30.440Z,1.55
2022-11-24T17:37:58.018Z,1.73
2022-11-24T17:40:29.091Z,1.60
2022-11-24T17:43:00.143Z,1.88
2022-11-24T17:45:27.707Z,1.67
2022-11-24T17:47:55.123Z,1.80
2022-11-24T17:50:25.615Z,1.77
2022-11-24T17:52:53.414Z,1.40
2022-11-24T17:55:20.252Z,1.75
2022-11-24T17:57:47.012Z,1.80
2022-11-24T18:00:14.339Z,1.70
2022-11-24T18:02:41.157Z,1.90
2022-11-24T18:05:09.414Z,1.98
2022-11-24T18:07:37.110Z,1.73
2022-11-24T18:10:04.582Z,1.83
2022-11-24T18:12:32.252Z,1.80
2022-11-24T18:14:59.174Z,1.70
2022-11-24T18:17:26.478Z,10.45
2022-11-24T18:19:53.717Z,4.85
2022-11-24T18:22:36.609Z,5.22
2022-11-24T18:25:09.306Z,5.18
2022-11-24T18:27:36.530Z,6.07
2022-11-24T18:30:06.289Z,5.28
2022-11-24T18:32:33.307Z,5.43
2022-11-24T18:35:00.468Z,4.95
2022-11-24T18:37:30.444Z,5.68
2022-11-24T18:39:57.345Z,4.90
2022-11-24T18:42:25.820Z,5.03
2022-11-24T18:44:54.287Z,4.97
2022-11-24T18:47:21.221Z,4.95
2022-11-24T18:49:47.922Z,4.80
2022-11-24T18:52:14.636Z,4.57
2022-11-24T18:54:41.932Z,4.78
2022-11-24T18:57:10.210Z,4.40
2022-11-24T18:59:37.266Z,4.72
2022-11-24T19:02:04.019Z,4.55
2022-11-24T19:04:30.777Z,4.40
2022-11-24T19:06:57.490Z,4.43
2022-11-24T19:09:25.529Z,4.38
2022-11-24T19:11:52.295Z,4.07
2022-11-24T19:14:19.556Z,4.25
2022-11-24T19:16:48.276Z,4.30
2022-11-24T19:19:17.178Z,4.07
2022-11-24T19:21:44.466Z,3.72
2022-11-24T19:24:13.365Z,3.75
2022-11-24T19:26:42.329Z,3.63
2022-11-24T19:29:09.400Z,4.18
2022-11-24T19:31:40.499Z,3.72
2022-11-24T19:34:08.201Z,4.05
2022-11-24T19:36:35.185Z,3.40
2022-11-24T19:39:04.645Z,3.60
2022-11-24T19:41:31.934Z,3.40
2022-11-24T19:43:59.041Z,3.20
2022-11-24T19:46:27.536Z,3.78
2022-11-24T19:48:56.160Z,3.80
2022-11-24T19:51:27.754Z,3.83
2022-11-24T19:53:54.694Z,3.58
2022-11-24T19:56:22.813Z,3.38
2022-11-24T19:58:49.845Z,3.58
2022-11-24T20:01:17.567Z,3.00
2022-11-24T20:03:45.105Z,2.95
2022-11-24T20:06:14.235Z,3.17
2022-11-24T20:08:41.811Z,3.05
2022-11-24T20:11:13.857Z,2.78
2022-11-24T20:13:43.677Z,2.85
2022-11-24T20:16:26.281Z,2.95
2022-11-24T20:18:54.466Z,2.88
2022-11-24T20:21:22.261Z,2.80
2022-11-24T20:23:54.048Z,2.50
2022-11-24T20:26:22.885Z,2.40
2022-11-24T20:28:50.194Z,2.75
2022-11-24T20:31:18.676Z,2.70
2022-11-24T20:33:45.748Z,2.97
2022-11-24T20:36:18.232Z,2.50
2022-11-24T20:38:45.095Z,3.08
2022-11-24T20:41:24.986Z,2.92
2022-11-24T20:43:51.907Z,2.50
2022-11-24T20:46:20.514Z,2.60
2022-11-24T20:48:47.437Z,2.47
2022-11-24T20:51:24.683Z,2.25
2022-11-24T20:53:52.828Z,2.38
2022-11-24T20:56:23.942Z,2.63
2022-11-24T20:58:50.782Z,2.10
2022-11-24T21:01:19.543Z,2.13
2022-11-24T21:03:46.883Z,1.98
2022-11-24T21:06:14.036Z,1.83
2022-11-24T21:08:43.654Z,2.38
2022-11-24T21:11:13.342Z,1.98
2022-11-24T21:13:43.368Z,2.28
2022-11-24T21:16:15.746Z,2.10
2022-11-24T21:18:44.684Z,2.03
2022-11-24T21:21:13.577Z,1.90
2022-11-24T21:23:40.499Z,1.80
2022-11-24T21:26:13.001Z,1.70
2022-11-24T21:28:44.731Z,1.90
2022-11-24T21:31:15.021Z,1.95
2022-11-24T21:33:46.135Z,1.80
2022-11-24T21:36:15.363Z,2.10
2022-11-24T21:38:44.043Z,1.83
2022-11-24T21:41:12.388Z,1.80
2022-11-24T21:43:39.847Z,1.80
2022-11-24T21:46:08.681Z,1.80
2022-11-24T21:48:35.950Z,1.65
2022-11-24T21:51:03.998Z,1.73
2022-11-24T21:53:32.004Z,1.65
2022-11-24T21:56:02.015Z,1.80
2022-11-24T21:58:29.093Z,1.90
2022-11-24T22:01:02.007Z,1.63
2022-11-24T22:03:29.115Z,1.70
2022-11-24T22:05:56.936Z,1.55
2022-11-24T22:08:24.174Z,1.88
2022-11-24T22:10:51.000Z,1.70
2022-11-24T22:13:17.757Z,1.70
2022-11-24T22:15:45.678Z,1.60
2022-11-24T22:18:12.394Z,1.70
2022-11-24T22:20:39.263Z,1.60
2022-11-24T22:23:05.978Z,1.60
2022-11-24T22:25:33.607Z,2.17
2022-11-24T22:28:00.368Z,1.60
2022-11-24T22:30:27.091Z,1.40
2022-11-24T22:32:54.463Z,1.50
2022-11-24T22:35:21.250Z,1.60
2022-11-24T22:37:48.349Z,1.48
2022-11-24T22:40:16.110Z,1.73
2022-11-24T22:42:42.868Z,1.52
2022-11-24T22:45:10.158Z,1.77
2022-11-24T22:47:36.856Z,1.67
2022-11-24T22:50:04.297Z,1.60
2022-11-24T22:52:31.191Z,1.60
2022-11-24T22:54:57.899Z,1.63
2022-11-24T22:57:24.614Z,1.75
2022-11-24T22:59:51.314Z,1.63
2022-11-24T23:02:19.310Z,1.48
2022-11-24T23:04:46.027Z,1.60
2022-11-24T23:07:12.792Z,1.63
2022-11-24T23:09:39.503Z,1.50
2022-11-24T23:12:06.399Z,1.60
2022-11-24T23:14:33.249Z,1.33
2022-11-24T23:17:00.730Z,1.58
2022-11-24T23:19:28.012Z,1.45
2022-11-24T23:21:54.735Z,1.70
2022-11-24T23:24:21.443Z,1.42
2022-11-24T23:26:48.501Z,1.05
2022-11-24T23:29:15.314Z,1.50
2022-11-24T23:31:42.102Z,1.35
2022-11-24T23:34:09.100Z,1.38
2022-11-24T23:36:35.823Z,1.20
2022-11-24T23:39:06.646Z,1.50
2022-11-24T23:41:33.384Z,1.35
2022-11-24T23:44:00.283Z,1.35
2022-11-24T23:46:27.356Z,1.35
2022-11-24T23:48:55.657Z,1.58
2022-11-24T23:51:27.233Z,1.58
2022-11-24T23:53:54.463Z,1.30
2022-11-24T23:56:26.575Z,1.30
2022-11-24T23:58:53.380Z,1.50
